Time;durP1;ratioP1;P1;durP2;ratioP2;P2;SDS_P1;SDS_P2;PMS_P1;PMS_P2;Temp;Humidity;BMP_temperature;BMP_pressure;BME280_temperature;BME280_humidity;BME280_pressure;Samples;Min_cycle;Max_cycle;Signal;HPM_P1;HPM_P2
2022/05/28 00:01:29;;;;;;;10.98;1.98;;;11.50;99.90;;;;;;4961230;28;20051;-84
2022/05/28 00:03:57;;;;;;;10.07;2.13;;;11.50;99.90;;;;;;4981199;28;20045;-84
2022/05/28 00:06:24;;;;;;;12.98;1.92;;;11.50;99.90;;;;;;4965086;28;20054;-84
2022/05/28 00:08:50;;;;;;;8.63;1.38;;;11.50;99.90;;;;;;4965044;28;20415;-84
2022/05/28 00:11:35;;;;;;;8.00;1.55;;;11.60;99.90;;;;;;4981424;28;20046;-84
2022/05/28 00:14:01;;;;;;;11.65;2.10;;;11.60;99.90;;;;;;4981251;28;20133;-84
2022/05/28 00:16:28;;;;;;;12.30;2.28;;;11.60;99.90;;;;;;4964971;28;20117;-84
2022/05/28 00:18:53;;;;;;;10.82;1.60;;;11.60;99.90;;;;;;4980731;28;20042;-84
2022/05/28 00:21:20;;;;;;;13.15;3.08;;;11.70;99.90;;;;;;4981234;28;20121;-84
2022/05/28 00:23:46;;;;;;;9.48;1.70;;;11.70;99.90;;;;;;4981241;28;20141;-84
2022/05/28 00:26:13;;;;;;;8.55;1.23;;;11.80;99.90;;;;;;4965310;28;20108;-84
2022/05/28 00:28:39;;;;;;;7.75;1.20;;;11.80;99.90;;;;;;4981034;28;20046;-84
2022/05/28 00:31:05;;;;;;;8.05;1.50;;;11.80;99.90;;;;;;4981360;28;20038;-84
2022/05/28 00:33:31;;;;;;;11.85;1.88;;;11.80;99.90;;;;;;4981032;28;20038;-84
2022/05/28 00:35:57;;;;;;;9.45;2.17;;;11.80;99.90;;;;;;4981022;28;20098;-84
2022/05/28 00:38:24;;;;;;;8.90;1.88;;;11.80;99.90;;;;;;4980710;28;20454;-84
2022/05/28 00:40:53;;;;;;;10.60;2.35;;;11.80;99.90;;;;;;4979932;28;20468;-83
2022/05/28 00:43:19;;;;;;;9.88;1.60;;;11.80;99.90;;;;;;4974100;28;20092;-83
2022/05/28 00:45:47;;;;;;;6.85;1.30;;;11.80;99.90;;;;;;4981373;28;20042;-83
2022/05/28 00:48:20;;;;;;;8.07;1.40;;;11.80;99.90;;;;;;4980580;28;20041;-83
2022/05/28 00:50:45;;;;;;;7.85;1.35;;;11.80;99.90;;;;;;4964873;28;20050;-84
2022/05/28 00:53:11;;;;;;;13.27;2.05;;;11.80;99.90;;;;;;4980948;28;20053;-83
2022/05/28 00:55:37;;;;;;;8.10;1.42;;;11.70;99.90;;;;;;4980650;28;20050;-82
2022/05/28 00:58:07;;;;;;;7.68;1.40;;;11.70;99.90;;;;;;4964621;28;20043;-84
2022/05/28 01:00:33;;;;;;;8.10;1.27;;;11.70;99.90;;;;;;4981163;28;20060;-84
2022/05/28 01:03:20;;;;;;;8.80;1.67;;;11.60;99.90;;;;;;4965122;28;20391;-84
2022/05/28 01:05:54;;;;;;;7.75;1.23;;;11.60;99.90;;;;;;4980782;28;20085;-84
2022/05/28 01:08:48;;;;;;;10.30;1.20;;;11.50;99.90;;;;;;4964474;28;20050;-84
2022/05/28 01:11:32;;;;;;;9.25;1.52;;;11.50;99.90;;;;;;4980753;28;20133;-84
2022/05/28 01:14:11;;;;;;;8.30;1.83;;;11.40;99.90;;;;;;4976940;28;20080;-84
2022/05/28 01:17:05;;;;;;;10.60;1.50;;;11.40;99.90;;;;;;4961530;28;20045;-84
2022/05/28 01:20:03;;;;;;;6.43;0.90;;;11.40;99.90;;;;;;4977157;28;20049;-83
2022/05/28 01:22:57;;;;;;;7.90;1.17;;;11.40;99.90;;;;;;4977528;28;20120;-84
2022/05/28 01:25:44;;;;;;;6.97;1.02;;;11.30;99.90;;;;;;4977384;28;20408;-84
2022/05/28 01:28:15;;;;;;;9.18;1.35;;;11.20;99.90;;;;;;4977259;28;20042;-83
2022/05/28 01:30:44;;;;;;;7.63;1.80;;;11.20;99.90;;;;;;4961300;28;20046;-84
2022/05/28 01:33:12;;;;;;;7.15;1.13;;;11.20;99.90;;;;;;4961244;28;20038;-84
2022/05/28 01:35:38;;;;;;;6.93;1.60;;;11.10;99.90;;;;;;4977248;28;20092;-84
2022/05/28 01:38:07;;;;;;;9.35;1.30;;;11.10;99.90;;;;;;4976974;28;20046;-83
2022/05/28 01:40:34;;;;;;;7.70;1.40;;;11.10;99.90;;;;;;4977218;28;20039;-84
2022/05/28 01:43:04;;;;;;;9.55;1.67;;;11.00;99.90;;;;;;4961142;28;20043;-84
2022/05/28 01:45:32;;;;;;;9.32;1.50;;;11.00;99.90;;;;;;4977455;28;20038;-84
2022/05/28 01:48:04;;;;;;;8.75;1.20;;;11.00;99.90;;;;;;4976783;28;20042;-84
2022/05/28 01:50:34;;;;;;;10.23;1.55;;;11.00;99.90;;;;;;4977021;28;20056;-84
2022/05/28 01:53:02;;;;;;;7.28;1.25;;;10.90;99.90;;;;;;4976991;28;20050;-84
2022/05/28 01:55:28;;;;;;;10.90;1.35;;;10.90;99.90;;;;;;4976627;28;20070;-84
2022/05/28 01:57:54;;;;;;;7.03;1.15;;;10.90;99.90;;;;;;4960741;28;20054;-84
2022/05/28 02:00:20;;;;;;;11.32;1.67;;;10.90;99.90;;;;;;4976838;28;20038;-84
2022/05/28 02:02:46;;;;;;;7.32;1.42;;;10.90;99.90;;;;;;4976836;28;20070;-83
2022/05/28 02:05:12;;;;;;;9.60;1.40;;;10.90;99.90;;;;;;4976939;28;20634;-84
2022/05/28 02:07:38;;;;;;;9.27;1.88;;;10.80;99.90;;;;;;4960279;28;20590;-84
2022/05/28 02:10:10;;;;;;;8.43;1.35;;;10.90;99.90;;;;;;4976788;28;20080;-84
2022/05/28 02:12:57;;;;;;;7.32;1.35;;;10.80;99.90;;;;;;4976702;28;20057;-84
2022/05/28 02:15:42;;;;;;;7.03;0.98;;;10.70;99.90;;;;;;4976719;28;20504;-84
2022/05/28 02:18:25;;;;;;;6.78;1.25;;;10.70;99.90;;;;;;4976462;28;20443;-84
2022/05/28 02:20:58;;;;;;;7.78;1.48;;;10.70;99.90;;;;;;4976794;28;20053;-84
2022/05/28 02:23:39;;;;;;;8.18;1.42;;;10.70;99.90;;;;;;4976397;28;20042;-84
2022/05/28 02:26:13;;;;;;;7.55;1.48;;;10.60;99.90;;;;;;4976046;28;20050;-84
2022/05/28 02:28:41;;;;;;;7.03;1.42;;;10.60;99.90;;;;;;4976209;28;20049;-83
2022/05/28 02:31:18;;;;;;;12.10;1.55;;;10.50;99.90;;;;;;4976441;28;20602;-84
2022/05/28 02:33:45;;;;;;;9.23;1.30;;;10.50;99.90;;;;;;4976223;28;20057;-83
2022/05/28 02:36:16;;;;;;;6.63;1.30;;;10.40;99.90;;;;;;4960051;28;20093;-84
2022/05/28 02:38:41;;;;;;;7.65;1.58;;;10.40;99.90;;;;;;4975801;28;20093;-83
2022/05/28 02:41:07;;;;;;;10.63;1.42;;;10.40;99.90;;;;;;4960263;28;20447;-84
2022/05/28 02:43:33;;;;;;;6.13;1.23;;;10.40;99.90;;;;;;4975946;28;20069;-83
2022/05/28 02:46:01;;;;;;;8.35;1.52;;;10.30;99.90;;;;;;4959987;28;20089;-84
2022/05/28 02:48:27;;;;;;;11.80;1.70;;;10.30;99.90;;;;;;4975895;28;20519;-83
2022/05/28 02:50:52;;;;;;;11.20;2.15;;;10.30;99.90;;;;;;4975898;28;20043;-84
2022/05/28 02:53:18;;;;;;;11.43;1.48;;;10.30;99.90;;;;;;4959803;28;20038;-84
2022/05/28 02:55:44;;;;;;;9.95;1.45;;;10.30;99.90;;;;;;4959530;28;20415;-83
2022/05/28 02:58:10;;;;;;;5.72;1.25;;;10.30;99.90;;;;;;4975581;28;20133;-83
2022/05/28 03:00:36;;;;;;;7.20;1.33;;;10.20;99.90;;;;;;4959693;28;20038;-83
2022/05/28 03:03:02;;;;;;;8.88;1.30;;;10.20;99.90;;;;;;4975645;28;20104;-83
2022/05/28 03:05:28;;;;;;;5.25;1.30;;;10.10;99.90;;;;;;4975514;28;20038;-83
2022/05/28 03:07:54;;;;;;;8.38;1.63;;;10.10;99.90;;;;;;4975339;28;20419;-83
2022/05/28 03:10:19;;;;;;;7.10;1.63;;;10.10;99.90;;;;;;4959382;28;20555;-83
2022/05/28 03:12:45;;;;;;;10.48;1.50;;;10.00;99.90;;;;;;4975696;28;20046;-83
2022/05/28 03:15:11;;;;;;;6.50;1.25;;;10.10;99.90;;;;;;4958879;28;20647;-83
2022/05/28 03:17:37;;;;;;;7.80;1.30;;;10.00;99.90;;;;;;4975389;28;20139;-84
2022/05/28 03:20:03;;;;;;;10.35;1.52;;;10.00;99.90;;;;;;4959194;28;20508;-84
2022/05/28 03:22:29;;;;;;;12.23;2.10;;;10.00;99.90;;;;;;4959336;28;20044;-84
2022/05/28 03:24:55;;;;;;;9.40;1.70;;;10.00;99.90;;;;;;4959301;28;20120;-84
2022/05/28 03:27:20;;;;;;;11.80;1.98;;;9.90;99.90;;;;;;4975207;28;20038;-84
2022/05/28 03:29:46;;;;;;;10.55;1.52;;;9.90;99.90;;;;;;4975029;28;20411;-84
2022/05/28 03:32:12;;;;;;;8.80;2.30;;;9.90;99.90;;;;;;4975465;28;20050;-84
2022/05/28 03:34:37;;;;;;;8.68;1.23;;;9.90;99.90;;;;;;4975200;28;20043;-84
2022/05/28 03:37:03;;;;;;;6.25;1.40;;;9.90;99.90;;;;;;4958408;28;20049;-84
2022/05/28 03:39:29;;;;;;;12.63;1.67;;;9.90;99.90;;;;;;4974931;28;20042;-84
2022/05/28 03:41:55;;;;;;;10.00;1.80;;;9.90;99.90;;;;;;4975055;28;20093;-84
2022/05/28 03:44:20;;;;;;;12.43;1.85;;;9.90;99.90;;;;;;4975126;28;20125;-84
2022/05/28 03:46:47;;;;;;;12.85;1.67;;;9.90;99.90;;;;;;4975353;28;20100;-84
2022/05/28 03:49:37;;;;;;;9.40;1.63;;;9.90;99.90;;;;;;4974538;28;20042;-84
2022/05/28 03:52:03;;;;;;;8.75;1.73;;;9.80;99.90;;;;;;4958953;28;20125;-84
2022/05/28 03:54:29;;;;;;;7.95;1.55;;;9.80;99.90;;;;;;4958972;28;20120;-84
2022/05/28 03:56:59;;;;;;;19.50;2.58;;;9.90;99.90;;;;;;4958828;28;20492;-84
2022/05/28 03:59:24;;;;;;;7.93;2.05;;;9.80;99.90;;;;;;4958478;28;20042;-84
2022/05/28 04:01:50;;;;;;;7.55;1.67;;;9.80;99.90;;;;;;4974893;28;20057;-84
2022/05/28 04:04:16;;;;;;;8.52;1.48;;;9.80;99.90;;;;;;4958621;28;20127;-84
2022/05/28 04:06:41;;;;;;;11.13;1.65;;;9.80;99.90;;;;;;4974807;28;20038;-83
2022/05/28 04:09:07;;;;;;;9.63;1.80;;;9.80;99.90;;;;;;4974433;28;20094;-84
2022/05/28 04:11:35;;;;;;;12.35;1.90;;;9.80;99.90;;;;;;4958999;28;20054;-83
2022/05/28 04:14:01;;;;;;;11.65;2.53;;;9.80;99.90;;;;;;4958698;28;20038;-83
2022/05/28 04:16:27;;;;;;;10.30;2.20;;;9.80;99.90;;;;;;4974846;28;20042;-83
2022/05/28 04:18:53;;;;;;;12.18;1.60;;;9.80;99.90;;;;;;4974250;28;20560;-83
2022/05/28 04:21:18;;;;;;;9.93;1.80;;;9.80;99.90;;;;;;4958571;28;20070;-83
2022/05/28 04:23:44;;;;;;;8.35;1.25;;;9.90;99.90;;;;;;4974687;28;20121;-83
2022/05/28 04:26:10;;;;;;;11.77;1.83;;;9.80;99.90;;;;;;4974601;28;20042;-83
2022/05/28 04:28:35;;;;;;;13.73;1.67;;;9.90;99.90;;;;;;4958269;28;20044;-83
2022/05/28 04:31:01;;;;;;;10.90;1.70;;;9.90;99.90;;;;;;4974618;28;20096;-83
2022/05/28 04:33:27;;;;;;;9.40;1.63;;;9.90;99.90;;;;;;4974543;28;20048;-84
2022/05/28 04:35:52;;;;;;;10.85;1.88;;;9.90;99.90;;;;;;4974396;28;20034;-83
2022/05/28 04:38:18;;;;;;;10.63;2.17;;;10.00;99.90;;;;;;4974247;28;20049;-83
2022/05/28 04:40:44;;;;;;;9.05;1.50;;;10.00;99.90;;;;;;4974749;28;20050;-83
2022/05/28 04:43:09;;;;;;;11.13;2.08;;;10.00;99.90;;;;;;4974798;28;20408;-84
2022/05/28 04:45:35;;;;;;;13.40;2.35;;;10.10;99.90;;;;;;4958368;28;20564;-83
2022/05/28 04:48:00;;;;;;;10.88;2.13;;;10.20;99.90;;;;;;4959790;28;20044;-83
2022/05/28 04:50:26;;;;;;;11.30;1.95;;;10.20;99.90;;;;;;4977968;28;20042;-83
2022/05/28 04:52:51;;;;;;;10.02;1.55;;;10.30;99.90;;;;;;4978164;28;20038;-83
2022/05/28 04:55:17;;;;;;;10.50;1.77;;;10.30;99.90;;;;;;4977962;28;20083;-83
2022/05/28 04:57:43;;;;;;;9.82;2.13;;;10.30;99.90;;;;;;4961932;28;20132;-83
2022/05/28 05:00:15;;;;;;;9.23;1.55;;;10.40;99.90;;;;;;4961870;28;20040;-83
2022/05/28 05:02:41;;;;;;;12.57;1.83;;;10.40;99.90;;;;;;4978102;28;20046;-84
2022/05/28 05:05:07;;;;;;;10.57;2.28;;;10.40;99.90;;;;;;4977658;28;20038;-84
2022/05/28 05:07:33;;;;;;;9.90;1.55;;;10.40;99.90;;;;;;4977503;28;20042;-84
2022/05/28 05:09:58;;;;;;;17.60;2.30;;;10.50;99.90;;;;;;4977751;28;20049;-84
2022/05/28 05:12:24;;;;;;;8.80;1.60;;;10.50;99.90;;;;;;4961943;28;20134;-84
2022/05/28 05:14:49;;;;;;;11.68;1.73;;;10.50;99.90;;;;;;4978010;28;20038;-84
2022/05/28 05:17:15;;;;;;;9.68;2.00;;;10.60;99.90;;;;;;4977611;28;20503;-84
2022/05/28 05:19:40;;;;;;;9.10;1.98;;;10.50;99.90;;;;;;4977373;28;20038;-83
2022/05/28 05:22:06;;;;;;;12.80;1.75;;;10.50;99.90;;;;;;4977610;28;20044;-83
2022/05/28 05:24:33;;;;;;;12.02;1.85;;;10.50;99.90;;;;;;4961556;28;20456;-84
2022/05/28 05:27:00;;;;;;;10.32;1.95;;;10.60;99.90;;;;;;4961466;28;20056;-83
2022/05/28 05:29:26;;;;;;;9.73;2.17;;;10.70;99.90;;;;;;4977101;28;20097;-83
2022/05/28 05:31:52;;;;;;;10.95;1.60;;;10.70;99.90;;;;;;4977297;28;20093;-84
2022/05/28 05:34:18;;;;;;;12.38;1.85;;;10.70;99.90;;;;;;4977552;28;20042;-83
2022/05/28 05:36:43;;;;;;;10.02;1.92;;;10.70;99.90;;;;;;4977278;28;20084;-84
2022/05/28 05:39:09;;;;;;;10.45;1.88;;;10.70;99.90;;;;;;4976922;28;20042;-83
2022/05/28 05:41:42;;;;;;;7.25;1.92;;;10.80;99.90;;;;;;4961216;28;20385;-84
2022/05/28 05:44:08;;;;;;;;;;;10.80;99.90;;;;;;4985278;28;20109;-83
2022/05/28 05:46:33;;;;;;;9.10;1.67;;;10.80;99.90;;;;;;4976569;28;20406;-83
2022/05/28 05:48:59;;;;;;;8.20;1.80;;;10.90;99.90;;;;;;4960043;28;20042;-84
2022/05/28 05:51:27;;;;;;;8.25;1.70;;;10.90;99.90;;;;;;4976696;28;20042;-83
2022/05/28 05:53:53;;;;;;;12.10;2.45;;;10.90;99.90;;;;;;4976762;28;20061;-83
2022/05/28 05:56:18;;;;;;;11.88;2.28;;;11.00;99.90;;;;;;4976492;28;20492;-83
2022/05/28 05:58:44;;;;;;;15.35;2.45;;;11.00;99.90;;;;;;4975573;28;20035;-83
2022/05/28 06:01:09;;;;;;;13.15;1.95;;;11.00;99.90;;;;;;4976380;28;20045;-83
2022/05/28 06:03:36;;;;;;;14.07;2.65;;;11.10;99.90;;;;;;4976332;28;20030;-83
2022/05/28 06:06:05;;;;;;;11.82;3.40;;;11.10;99.90;;;;;;4976030;28;20465;-83
2022/05/28 06:08:31;;;;;;;14.55;3.30;;;11.30;99.90;;;;;;4959273;28;20109;-83
2022/05/28 06:10:57;;;;;;;8.30;1.75;;;11.40;99.90;;;;;;4955182;28;20037;-84
2022/05/28 06:13:23;;;;;;;13.00;2.15;;;11.50;99.90;;;;;;4973744;28;20042;-84
2022/05/28 06:15:49;;;;;;;12.93;2.28;;;11.60;99.90;;;;;;4989807;28;20045;-83
2022/05/28 06:18:15;;;;;;;13.07;2.45;;;11.60;99.90;;;;;;4959663;28;20042;-83
2022/05/28 06:20:41;;;;;;;13.27;2.58;;;11.70;99.90;;;;;;4975956;28;20106;-84
2022/05/28 06:23:07;;;;;;;14.18;2.35;;;11.70;99.90;;;;;;4976324;28;20046;-84
2022/05/28 06:25:32;;;;;;;12.13;2.28;;;11.80;99.90;;;;;;4976034;28;20488;-84
2022/05/28 06:27:58;;;;;;;14.88;3.08;;;11.90;99.90;;;;;;4975696;28;20038;-84
2022/05/28 06:30:24;;;;;;;15.32;2.33;;;11.90;99.90;;;;;;4975924;28;20389;-84
2022/05/28 06:32:50;;;;;;;11.25;2.40;;;12.00;99.90;;;;;;4959796;28;20085;-83
2022/05/28 06:35:16;;;;;;;12.75;2.22;;;12.00;99.90;;;;;;4975701;28;20042;-84
2022/05/28 06:37:41;;;;;;;12.43;2.30;;;12.10;99.90;;;;;;4975703;28;20085;-84
2022/05/28 06:40:08;;;;;;;15.13;3.15;;;12.10;99.90;;;;;;4975990;28;20029;-84
2022/05/28 06:42:34;;;;;;;12.77;1.85;;;12.20;99.90;;;;;;4975826;28;20132;-84
2022/05/28 06:45:00;;;;;;;8.63;1.60;;;12.30;99.90;;;;;;4975339;28;20078;-84
2022/05/28 06:47:26;;;;;;;9.90;2.03;;;12.30;99.90;;;;;;4959090;28;20043;-84
2022/05/28 06:52:36;;;;;;;13.07;3.05;;;12.50;99.90;;;;;;4972820;28;20030;-84
2022/05/28 06:55:03;;;;;;;11.65;1.88;;;12.60;99.90;;;;;;4973876;28;20042;-84
2022/05/28 06:57:29;;;;;;;10.43;2.03;;;12.70;99.90;;;;;;4974072;28;20046;-84
2022/05/28 06:59:57;;;;;;;11.43;3.10;;;12.80;99.90;;;;;;4958549;28;20038;-85
2022/05/28 07:02:22;;;;;;;11.30;2.17;;;13.00;99.90;;;;;;4974833;28;20045;-85
2022/05/28 07:04:48;;;;;;;10.00;2.17;;;13.00;99.90;;;;;;4974806;28;20038;-84
2022/05/28 07:07:14;;;;;;;10.88;1.88;;;13.10;99.90;;;;;;4974867;28;20053;-84
2022/05/28 07:09:40;;;;;;;12.57;2.28;;;13.10;99.90;;;;;;4975375;28;20046;-84
2022/05/28 07:12:06;;;;;;;13.00;3.38;;;13.00;99.90;;;;;;4958528;28;20057;-84
2022/05/28 07:14:32;;;;;;;12.95;3.00;;;13.00;99.90;;;;;;4975231;28;20407;-85
2022/05/28 07:16:57;;;;;;;17.77;2.20;;;13.10;99.90;;;;;;4958494;28;20038;-84
2022/05/28 07:19:23;;;;;;;11.80;2.00;;;13.00;99.90;;;;;;4957538;28;20050;-84
2022/05/28 07:21:48;;;;;;;12.25;2.03;;;13.00;99.90;;;;;;4973716;28;20496;-84
2022/05/28 07:24:14;;;;;;;11.05;2.00;;;13.00;99.90;;;;;;4973350;28;20601;-84
2022/05/28 07:26:40;;;;;;;10.98;2.08;;;13.00;99.90;;;;;;4973520;28;20061;-84
2022/05/28 07:29:08;;;;;;;18.35;3.40;;;13.10;99.90;;;;;;4972588;28;20112;-84
2022/05/28 07:31:34;;;;;;;11.13;2.65;;;13.10;99.90;;;;;;4972937;28;20145;-85
2022/05/28 07:34:00;;;;;;;10.68;2.13;;;13.10;99.90;;;;;;4974554;28;20070;-84
2022/05/28 07:36:25;;;;;;;13.02;3.40;;;13.10;99.90;;;;;;4974373;28;20049;-84
2022/05/28 07:38:52;;;;;;;8.35;2.08;;;13.20;99.90;;;;;;4957604;28;20038;-84
2022/05/28 07:41:21;;;;;;;9.65;2.15;;;13.10;99.90;;;;;;4972238;28;20134;-84
2022/05/28 07:43:48;;;;;;;13.75;2.55;;;13.10;99.90;;;;;;4973338;28;20034;-84
2022/05/28 07:46:20;;;;;;;10.73;2.85;;;13.00;99.90;;;;;;4958089;28;20042;-84
2022/05/28 07:48:45;;;;;;;11.55;1.90;;;13.10;99.90;;;;;;4974689;28;20046;-84
2022/05/28 07:51:12;;;;;;;9.20;2.05;;;13.10;99.90;;;;;;4991310;28;20385;-84
2022/05/28 07:53:38;;;;;;;11.35;2.58;;;13.00;99.90;;;;;;4974880;28;20050;-84
2022/05/28 07:56:04;;;;;;;11.52;3.30;;;13.00;99.90;;;;;;5006817;28;20519;-83
2022/05/28 07:58:30;;;;;;;12.45;3.83;;;13.00;99.90;;;;;;4974211;28;20070;-84
2022/05/28 08:00:56;;;;;;;11.48;2.25;;;13.00;99.90;;;;;;4985007;28;20061;-84
2022/05/28 08:03:22;;;;;;;10.73;3.45;;;13.00;99.90;;;;;;4973482;28;20026;-84
2022/05/28 08:05:50;;;;;;;9.45;2.28;;;13.10;99.90;;;;;;4974231;28;20563;-84
2022/05/28 08:08:18;;;;;;;8.70;2.42;;;13.10;99.90;;;;;;4973461;28;20042;-85
2022/05/28 08:10:44;;;;;;;9.20;2.10;;;13.10;99.90;;;;;;4974545;28;20057;-84
2022/05/28 08:13:13;;;;;;;7.72;1.70;;;13.10;99.90;;;;;;4973962;28;20038;-84
2022/05/28 08:15:40;;;;;;;12.85;3.20;;;13.10;99.90;;;;;;4957466;28;20034;-84
2022/05/28 08:18:06;;;;;;;10.32;3.42;;;13.20;99.90;;;;;;4957921;28;20051;-84
2022/05/28 08:23:18;;;;;;;10.05;2.13;;;13.30;99.90;;;;;;4977005;28;20040;-85
2022/05/28 08:25:45;;;;;;;10.52;2.42;;;13.40;99.90;;;;;;4978819;28;20135;-84
2022/05/28 08:28:12;;;;;;;13.68;2.50;;;13.50;99.90;;;;;;4995767;28;20045;-85
2022/05/28 08:30:39;;;;;;;15.52;4.30;;;13.60;99.90;;;;;;4967074;28;20042;-84
2022/05/28 08:33:08;;;;;;;12.77;3.78;;;13.70;99.90;;;;;;4984706;28;20419;-84
2022/05/28 08:35:35;;;;;;;13.43;3.53;;;14.00;99.90;;;;;;4969980;28;20070;-84
2022/05/28 08:38:13;;;;;;;10.50;2.45;;;14.10;99.90;;;;;;4970800;28;20134;-85
2022/05/28 08:41:17;;;;;;;17.50;3.88;;;14.20;99.90;;;;;;4989475;28;20030;-84
2022/05/28 08:44:02;;;;;;;;;;;14.40;99.90;;;;;;4966695;28;20053;-84
2022/05/28 08:46:33;;;;;;;12.45;2.42;;;14.50;99.90;;;;;;4961268;28;19972;-84
2022/05/28 08:49:00;;;;;;;16.05;4.07;;;14.60;99.90;;;;;;4996836;28;20052;-85
2022/05/28 08:51:49;;;;;;;19.38;3.60;;;14.70;99.90;;;;;;4977645;28;20097;-84
2022/05/28 08:54:42;;;;;;;14.45;2.92;;;14.70;99.90;;;;;;4977390;28;20050;-85
2022/05/28 08:57:19;;;;;;;13.85;3.33;;;14.70;99.90;;;;;;4977088;28;20035;-84
2022/05/28 08:59:52;;;;;;;13.50;2.72;;;14.70;99.90;;;;;;4959653;28;20043;-84
2022/05/28 09:02:47;;;;;;;17.08;3.70;;;14.70;99.90;;;;;;4970926;28;20583;-83
2022/05/28 09:05:25;;;;;;;15.95;3.30;;;14.70;99.90;;;;;;4953775;28;20057;-84
2022/05/28 09:07:54;;;;;;;15.45;3.28;;;14.90;99.90;;;;;;4972632;28;20045;-84
2022/05/28 09:10:20;;;;;;;14.77;2.92;;;15.10;99.90;;;;;;4974101;28;20046;-85
2022/05/28 09:12:54;;;;;;;11.85;2.40;;;15.20;99.90;;;;;;4973916;28;20089;-85
2022/05/28 09:15:21;;;;;;;13.52;3.00;;;15.30;99.90;;;;;;4977457;28;20129;-85
2022/05/28 09:17:50;;;;;;;13.00;2.75;;;15.30;99.90;;;;;;4976947;28;20093;-85
2022/05/28 09:20:25;;;;;;;14.25;3.08;;;15.30;99.90;;;;;;4961006;28;20522;-85
2022/05/28 09:22:51;;;;;;;13.35;3.00;;;15.30;99.90;;;;;;4976890;28;20048;-85
2022/05/28 09:25:23;;;;;;;12.50;3.05;;;15.30;99.90;;;;;;4976494;28;20034;-85
2022/05/28 09:28:10;;;;;;;12.38;2.83;;;15.30;99.90;;;;;;4977122;28;20075;-85
2022/05/28 09:30:53;;;;;;;13.82;3.15;;;15.20;99.90;;;;;;4961212;28;20046;-85
2022/05/28 09:33:52;;;;;;;15.35;3.05;;;15.10;99.90;;;;;;4975336;28;20096;-85
2022/05/28 09:36:46;;;;;;;14.73;2.95;;;15.20;99.90;;;;;;4975146;28;20039;-85
2022/05/28 09:39:37;;;;;;;11.15;2.45;;;15.30;99.90;;;;;;4973486;28;20113;-85
2022/05/28 09:42:24;;;;;;;13.10;3.25;;;15.40;99.90;;;;;;4976889;28;20039;-85
2022/05/28 09:45:00;;;;;;;15.02;3.40;;;15.60;99.90;;;;;;4961212;28;20034;-85
2022/05/28 09:47:25;;;;;;;17.55;3.65;;;15.70;99.90;;;;;;4976878;28;20053;-85
2022/05/28 09:49:56;;;;;;;13.93;2.72;;;15.60;99.90;;;;;;4960717;28;20132;-85
2022/05/28 09:52:21;;;;;;;14.30;3.47;;;15.60;99.90;;;;;;4961243;28;20038;-85
2022/05/28 09:54:47;;;;;;;13.07;2.50;;;15.50;99.90;;;;;;4960771;28;20041;-84
2022/05/28 09:57:28;;;;;;;14.27;2.92;;;15.60;99.90;;;;;;4977451;28;20519;-85
2022/05/28 10:00:03;;;;;;;13.55;2.78;;;15.80;99.90;;;;;;4976283;28;20629;-84
2022/05/28 10:02:34;;;;;;;12.63;2.95;;;15.90;99.90;;;;;;4990113;28;20046;-84
2022/05/28 10:05:13;;;;;;;12.43;2.95;;;16.00;99.90;;;;;;4996208;28;20042;-85
2022/05/28 10:07:53;;;;;;;12.90;3.35;;;16.20;99.90;;;;;;4987191;28;20088;-85
2022/05/28 10:10:30;;;;;;;11.27;2.63;;;16.40;99.90;;;;;;4976565;28;20435;-85
2022/05/28 10:13:17;;;;;;;15.35;3.20;;;16.40;99.90;;;;;;4976128;28;20041;-85
2022/05/28 10:15:49;;;;;;;17.00;3.47;;;16.40;99.90;;;;;;4959866;28;20038;-85
2022/05/28 10:18:20;;;;;;;14.93;3.20;;;16.40;99.90;;;;;;4976104;28;20049;-85
2022/05/28 10:21:13;;;;;;;13.55;2.75;;;16.40;99.90;;;;;;4976375;28;20042;-85
2022/05/28 10:23:41;;;;;;;12.25;2.92;;;16.30;99.00;;;;;;4960332;28;20089;-85
2022/05/28 10:26:20;;;;;;;13.20;3.20;;;16.30;99.90;;;;;;4976420;28;20078;-85
2022/05/28 10:28:52;;;;;;;12.38;2.67;;;16.30;99.40;;;;;;4976089;28;20400;-85
2022/05/28 10:31:30;;;;;;;14.60;4.25;;;16.20;99.60;;;;;;4976339;28;20050;-84
2022/05/28 10:33:58;;;;;;;13.73;2.70;;;16.20;99.40;;;;;;4993865;28;20035;-85
2022/05/28 10:36:30;;;;;;;15.25;3.60;;;16.00;99.60;;;;;;4976141;28;20079;-85
2022/05/28 10:39:11;;;;;;;13.43;2.58;;;15.90;98.90;;;;;;4975817;28;20053;-84
2022/05/28 10:41:37;;;;;;;13.70;2.83;;;15.80;99.30;;;;;;4976271;28;20034;-84
2022/05/28 10:44:04;;;;;;;16.08;2.80;;;15.80;99.90;;;;;;4959823;28;20042;-85
2022/05/28 10:47:18;;;;;;;15.82;3.78;;;15.80;99.90;;;;;;4959750;28;20093;-85
2022/05/28 10:50:02;;;;;;;;;;;15.90;99.90;;;;;;4976360;28;20042;-84
2022/05/28 10:52:52;;;;;;;13.95;2.50;;;15.90;99.90;;;;;;4975855;28;19968;-85
2022/05/28 10:55:34;;;;;;;13.45;2.70;;;16.10;99.90;;;;;;4975605;28;20416;-85
2022/05/28 10:58:39;;;;;;;14.52;3.05;;;16.30;99.90;;;;;;4959486;28;20074;-84
2022/05/28 11:01:45;;;;;;;14.90;3.30;;;16.30;99.90;;;;;;4963515;28;20047;-85
2022/05/28 11:04:44;;;;;;;14.25;3.38;;;16.40;99.80;;;;;;4968495;28;20082;-85
2022/05/28 11:07:15;;;;;;;11.48;2.80;;;16.50;99.60;;;;;;4975438;28;20519;-85
2022/05/28 11:10:16;;;;;;;17.90;3.53;;;16.60;99.70;;;;;;4975299;28;20486;-85
2022/05/28 11:12:56;;;;;;;16.30;3.17;;;16.60;99.50;;;;;;4983579;28;20529;-85
2022/05/28 11:15:46;;;;;;;15.45;3.05;;;16.40;99.90;;;;;;4985647;28;20241;-85
2022/05/28 11:18:41;;;;;;;15.13;3.03;;;16.30;99.90;;;;;;4981449;28;20539;-84
2022/05/28 11:21:14;;;;;;;12.55;2.97;;;16.20;99.90;;;;;;4985727;28;20116;-85
2022/05/28 11:23:54;;;;;;;12.90;2.92;;;16.20;99.90;;;;;;4958803;28;20034;-85
2022/05/28 11:26:32;;;;;;;12.23;2.45;;;16.20;99.40;;;;;;4969086;28;20549;-85
2022/05/28 11:29:11;;;;;;;12.93;2.75;;;16.30;99.90;;;;;;4968220;28;20084;-85
2022/05/28 11:31:44;;;;;;;15.50;3.13;;;16.40;99.90;;;;;;4983090;28;20042;-85
2022/05/28 11:34:43;;;;;;;10.90;2.40;;;16.40;98.70;;;;;;4980974;28;20169;-85
2022/05/28 11:37:26;;;;;;;12.77;3.17;;;16.40;98.00;;;;;;4982113;28;20415;-85
2022/05/28 11:40:14;;;;;;;14.98;3.42;;;16.30;98.30;;;;;;4981291;28;20121;-84
2022/05/28 11:42:47;;;;;;;14.10;2.60;;;16.40;98.40;;;;;;4975901;28;20053;-85
2022/05/28 11:45:28;;;;;;;12.90;3.05;;;16.40;97.90;;;;;;4984032;28;20046;-85
2022/05/28 11:51:29;;;;;;;14.55;3.28;;;16.70;98.30;;;;;;4984177;28;20046;-85
2022/05/28 11:54:13;;;;;;;12.18;2.42;;;16.80;98.60;;;;;;4982306;28;20045;-85
2022/05/28 11:56:38;;;;;;;13.55;2.67;;;16.90;99.30;;;;;;4977133;28;20042;-85
2022/05/28 11:59:09;;;;;;;10.77;2.40;;;17.00;97.50;;;;;;4958135;28;20506;-85
2022/05/28 12:02:00;;;;;;;11.85;2.53;;;17.00;96.00;;;;;;4975200;28;20046;-85
2022/05/28 12:04:28;;;;;;;13.07;2.78;;;17.00;95.10;;;;;;4974838;28;20042;-85
2022/05/28 12:07:14;;;;;;;12.48;2.72;;;16.90;93.90;;;;;;4974877;28;20046;-85
2022/05/28 12:09:46;;;;;;;12.05;2.55;;;16.60;92.50;;;;;;4974726;28;20413;-85
2022/05/28 12:12:25;;;;;;;10.55;2.13;;;16.40;95.30;;;;;;4958725;28;20050;-85
2022/05/28 12:15:16;;;;;;;12.00;2.30;;;16.50;97.10;;;;;;4974796;28;20168;-85
2022/05/28 12:17:54;;;;;;;12.15;2.85;;;16.60;95.10;;;;;;4974376;28;20042;-85
2022/05/28 12:20:29;;;;;;;11.93;2.17;;;16.80;94.40;;;;;;4974677;28;20084;-85
2022/05/28 12:23:00;;;;;;;10.48;2.50;;;17.00;91.70;;;;;;4958544;28;20082;-85
2022/05/28 12:25:28;;;;;;;10.63;2.25;;;17.10;93.70;;;;;;4974952;28;20157;-86
2022/05/28 12:27:54;;;;;;;11.88;2.38;;;17.40;93.30;;;;;;4974496;28;20404;-84
2022/05/28 12:30:43;;;;;;;10.77;2.45;;;17.60;92.20;;;;;;4973741;28;20561;-85
2022/05/28 12:33:28;;;;;;;11.38;2.60;;;17.80;94.10;;;;;;4974362;28;20137;-85
2022/05/28 12:36:08;;;;;;;14.23;2.63;;;17.90;93.00;;;;;;4974718;28;20059;-85
2022/05/28 12:38:56;;;;;;;10.23;2.60;;;17.90;90.60;;;;;;4974104;28;20085;-85
2022/05/28 12:41:33;;;;;;;13.07;2.85;;;18.00;90.00;;;;;;4974520;28;20034;-85
2022/05/28 12:44:08;;;;;;;12.52;2.70;;;17.90;88.80;;;;;;4974540;28;20451;-85
2022/05/28 12:46:38;;;;;;;11.27;2.20;;;17.80;88.90;;;;;;4974551;28;20100;-85
2022/05/28 12:49:08;;;;;;;11.95;2.65;;;17.70;87.70;;;;;;4974002;28;20050;-85
2022/05/28 12:51:49;;;;;;;13.35;2.88;;;17.70;89.30;;;;;;4974464;28;20089;-85
2022/05/28 12:54:29;;;;;;;11.77;2.40;;;17.60;90.30;;;;;;4974328;28;20049;-84
2022/05/28 12:57:35;;;;;;;11.85;2.47;;;17.50;91.40;;;;;;4974447;28;20490;-85
2022/05/28 13:00:22;;;;;;;10.95;2.65;;;17.50;90.40;;;;;;4955431;28;20050;-84
2022/05/28 13:02:50;;;;;;;10.63;2.50;;;17.70;91.00;;;;;;4974352;28;20050;-84
2022/05/28 13:05:18;;;;;;;11.45;2.45;;;17.90;90.90;;;;;;4974183;28;20631;-84
2022/05/28 13:07:51;;;;;;;11.35;2.35;;;18.00;86.60;;;;;;4973765;28;20053;-85
2022/05/28 13:10:22;;;;;;;10.93;2.65;;;18.00;82.40;;;;;;4977575;28;20492;-85
2022/05/28 13:12:51;;;;;;;12.10;2.47;;;17.90;86.50;;;;;;4977875;28;20040;-85